sensor_id;sensor_type;location;lat;lon;timestamp;temperature;humidity
62916;DHT22;49010;51.230;-2.306;2022-08-20T00:02:38;17.80;68.50
62916;DHT22;49010;51.230;-2.306;2022-08-20T00:06:22;17.70;68.50
62916;DHT22;49010;51.230;-2.306;2022-08-20T00:10:05;17.70;69.00
62916;DHT22;49010;51.230;-2.306;2022-08-20T00:13:51;17.60;69.30
62916;DHT22;49010;51.230;-2.306;2022-08-20T00:17:33;17.50;69.40
62916;DHT22;49010;51.230;-2.306;2022-08-20T00:21:19;17.40;69.90
62916;DHT22;49010;51.230;-2.306;2022-08-20T00:25:04;17.30;70.30
62916;DHT22;49010;51.230;-2.306;2022-08-20T00:28:47;17.20;70.50
62916;DHT22;49010;51.230;-2.306;2022-08-20T00:32:29;17.20;70.70
62916;DHT22;49010;51.230;-2.306;2022-08-20T00:36:12;17.10;71.40
62916;DHT22;49010;51.230;-2.306;2022-08-20T00:39:56;17.10;71.00
62916;DHT22;49010;51.230;-2.306;2022-08-20T00:43:43;17.10;71.50
62916;DHT22;49010;51.230;-2.306;2022-08-20T00:47:25;17.00;71.70
62916;DHT22;49010;51.230;-2.306;2022-08-20T00:55:14;17.00;72.10
62916;DHT22;49010;51.230;-2.306;2022-08-20T00:58:56;16.90;72.10
62916;DHT22;49010;51.230;-2.306;2022-08-20T01:02:38;16.90;72.50
62916;DHT22;49010;51.230;-2.306;2022-08-20T01:06:22;16.80;72.70
62916;DHT22;49010;51.230;-2.306;2022-08-20T01:10:09;16.70;73.20
62916;DHT22;49010;51.230;-2.306;2022-08-20T01:13:52;16.70;73.60
62916;DHT22;49010;51.230;-2.306;2022-08-20T01:17:35;16.60;74.00
62916;DHT22;49010;51.230;-2.306;2022-08-20T01:21:19;16.60;74.50
62916;DHT22;49010;51.230;-2.306;2022-08-20T01:25:16;16.50;74.70
62916;DHT22;49010;51.230;-2.306;2022-08-20T01:29:03;16.50;74.50
62916;DHT22;49010;51.230;-2.306;2022-08-20T01:32:45;16.50;75.30
62916;DHT22;49010;51.230;-2.306;2022-08-20T01:36:43;16.40;75.50
62916;DHT22;49010;51.230;-2.306;2022-08-20T01:44:37;16.30;75.90
62916;DHT22;49010;51.230;-2.306;2022-08-20T01:48:21;16.30;76.60
62916;DHT22;49010;51.230;-2.306;2022-08-20T01:52:06;16.20;76.80
62916;DHT22;49010;51.230;-2.306;2022-08-20T01:55:49;16.20;76.70
62916;DHT22;49010;51.230;-2.306;2022-08-20T01:59:31;16.20;76.70
62916;DHT22;49010;51.230;-2.306;2022-08-20T02:03:13;16.20;76.70
62916;DHT22;49010;51.230;-2.306;2022-08-20T02:06:56;16.10;76.70
62916;DHT22;49010;51.230;-2.306;2022-08-20T02:10:38;16.10;76.70
62916;DHT22;49010;51.230;-2.306;2022-08-20T02:14:21;16.00;76.60
62916;DHT22;49010;51.230;-2.306;2022-08-20T02:18:05;16.00;76.80
62916;DHT22;49010;51.230;-2.306;2022-08-20T02:21:52;15.90;77.00
62916;DHT22;49010;51.230;-2.306;2022-08-20T02:25:37;15.90;77.10
62916;DHT22;49010;51.230;-2.306;2022-08-20T02:29:21;15.80;77.20
62916;DHT22;49010;51.230;-2.306;2022-08-20T02:33:05;15.80;77.30
62916;DHT22;49010;51.230;-2.306;2022-08-20T02:36:48;15.80;77.60
62916;DHT22;49010;51.230;-2.306;2022-08-20T02:40:30;15.80;77.60
62916;DHT22;49010;51.230;-2.306;2022-08-20T02:44:12;15.70;77.60
62916;DHT22;49010;51.230;-2.306;2022-08-20T02:47:54;15.60;77.80
62916;DHT22;49010;51.230;-2.306;2022-08-20T02:51:38;15.60;77.90
62916;DHT22;49010;51.230;-2.306;2022-08-20T02:55:21;15.60;78.20
62916;DHT22;49010;51.230;-2.306;2022-08-20T02:59:09;15.50;78.40
62916;DHT22;49010;51.230;-2.306;2022-08-20T03:03:00;15.40;78.60
62916;DHT22;49010;51.230;-2.306;2022-08-20T03:06:42;15.40;79.00
62916;DHT22;49010;51.230;-2.306;2022-08-20T03:10:34;15.40;79.20
62916;DHT22;49010;51.230;-2.306;2022-08-20T03:14:17;15.30;79.00
62916;DHT22;49010;51.230;-2.306;2022-08-20T03:17:58;15.30;79.70
62916;DHT22;49010;51.230;-2.306;2022-08-20T03:21:41;15.20;80.00
62916;DHT22;49010;51.230;-2.306;2022-08-20T03:25:27;15.20;80.50
62916;DHT22;49010;51.230;-2.306;2022-08-20T03:29:10;15.20;80.90
62916;DHT22;49010;51.230;-2.306;2022-08-20T03:32:53;15.10;81.30
62916;DHT22;49010;51.230;-2.306;2022-08-20T03:36:35;15.10;81.40
62916;DHT22;49010;51.230;-2.306;2022-08-20T03:40:28;15.00;81.60
62916;DHT22;49010;51.230;-2.306;2022-08-20T03:44:10;15.10;81.70
62916;DHT22;49010;51.230;-2.306;2022-08-20T03:47:54;15.10;82.00
62916;DHT22;49010;51.230;-2.306;2022-08-20T03:51:36;15.10;82.30
62916;DHT22;49010;51.230;-2.306;2022-08-20T03:55:39;15.10;82.50
62916;DHT22;49010;51.230;-2.306;2022-08-20T03:59:26;15.10;82.70
62916;DHT22;49010;51.230;-2.306;2022-08-20T04:03:11;15.00;82.80
62916;DHT22;49010;51.230;-2.306;2022-08-20T04:06:54;15.00;83.10
62916;DHT22;49010;51.230;-2.306;2022-08-20T04:10:37;15.00;83.30
62916;DHT22;49010;51.230;-2.306;2022-08-20T04:14:19;14.90;83.60
62916;DHT22;49010;51.230;-2.306;2022-08-20T04:18:02;14.90;83.80
62916;DHT22;49010;51.230;-2.306;2022-08-20T04:21:47;14.90;84.00
62916;DHT22;49010;51.230;-2.306;2022-08-20T04:25:31;14.90;84.00
62916;DHT22;49010;51.230;-2.306;2022-08-20T04:29:16;14.90;84.30
62916;DHT22;49010;51.230;-2.306;2022-08-20T04:32:59;14.80;84.50
62916;DHT22;49010;51.230;-2.306;2022-08-20T04:36:41;14.80;84.70
62916;DHT22;49010;51.230;-2.306;2022-08-20T04:40:23;14.80;84.90
62916;DHT22;49010;51.230;-2.306;2022-08-20T04:44:23;14.80;85.20
62916;DHT22;49010;51.230;-2.306;2022-08-20T04:48:06;14.70;85.50
62916;DHT22;49010;51.230;-2.306;2022-08-20T04:51:54;14.70;85.70
62916;DHT22;49010;51.230;-2.306;2022-08-20T04:55:39;14.70;85.70
62916;DHT22;49010;51.230;-2.306;2022-08-20T04:59:24;14.70;85.80
62916;DHT22;49010;51.230;-2.306;2022-08-20T05:03:07;14.70;85.70
62916;DHT22;49010;51.230;-2.306;2022-08-20T05:06:49;14.70;85.70
62916;DHT22;49010;51.230;-2.306;2022-08-20T05:10:31;14.70;86.00
62916;DHT22;49010;51.230;-2.306;2022-08-20T05:14:13;14.70;86.20
62916;DHT22;49010;51.230;-2.306;2022-08-20T05:17:57;14.70;86.50
62916;DHT22;49010;51.230;-2.306;2022-08-20T05:21:44;14.70;86.40
62916;DHT22;49010;51.230;-2.306;2022-08-20T05:25:27;14.70;86.60
62916;DHT22;49010;51.230;-2.306;2022-08-20T05:29:10;14.70;86.80
62916;DHT22;49010;51.230;-2.306;2022-08-20T05:32:52;14.70;87.10
62916;DHT22;49010;51.230;-2.306;2022-08-20T05:36:34;14.70;87.20
62916;DHT22;49010;51.230;-2.306;2022-08-20T05:40:16;14.80;87.60
62916;DHT22;49010;51.230;-2.306;2022-08-20T05:43:59;14.80;87.50
62916;DHT22;49010;51.230;-2.306;2022-08-20T05:47:42;14.80;87.80
62916;DHT22;49010;51.230;-2.306;2022-08-20T05:51:27;14.80;87.80
62916;DHT22;49010;51.230;-2.306;2022-08-20T05:55:11;14.80;87.80
62916;DHT22;49010;51.230;-2.306;2022-08-20T05:58:58;14.90;88.00
62916;DHT22;49010;51.230;-2.306;2022-08-20T06:02:43;14.90;88.10
62916;DHT22;49010;51.230;-2.306;2022-08-20T06:06:43;14.90;88.10
62916;DHT22;49010;51.230;-2.306;2022-08-20T06:10:28;15.00;88.60
62916;DHT22;49010;51.230;-2.306;2022-08-20T06:14:10;15.00;88.80
62916;DHT22;49010;51.230;-2.306;2022-08-20T06:17:52;15.10;89.00
62916;DHT22;49010;51.230;-2.306;2022-08-20T06:21:39;15.10;89.30
62916;DHT22;49010;51.230;-2.306;2022-08-20T06:25:22;15.20;89.50
62916;DHT22;49010;51.230;-2.306;2022-08-20T06:29:04;15.20;89.40
62916;DHT22;49010;51.230;-2.306;2022-08-20T06:32:47;15.30;89.50
62916;DHT22;49010;51.230;-2.306;2022-08-20T06:36:31;15.40;89.40
62916;DHT22;49010;51.230;-2.306;2022-08-20T06:40:24;15.50;89.30
62916;DHT22;49010;51.230;-2.306;2022-08-20T06:44:06;15.60;89.10
62916;DHT22;49010;51.230;-2.306;2022-08-20T06:47:49;15.70;89.80
62916;DHT22;49010;51.230;-2.306;2022-08-20T06:51:32;15.90;89.90
62916;DHT22;49010;51.230;-2.306;2022-08-20T06:55:16;16.00;89.90
62916;DHT22;49010;51.230;-2.306;2022-08-20T06:58:58;16.20;89.60
62916;DHT22;49010;51.230;-2.306;2022-08-20T07:02:41;16.30;88.80
62916;DHT22;49010;51.230;-2.306;2022-08-20T07:06:24;16.50;88.30
62916;DHT22;49010;51.230;-2.306;2022-08-20T07:10:08;16.70;87.70
62916;DHT22;49010;51.230;-2.306;2022-08-20T07:13:51;16.80;87.50
62916;DHT22;49010;51.230;-2.306;2022-08-20T07:17:33;17.10;85.80
62916;DHT22;49010;51.230;-2.306;2022-08-20T07:21:15;17.30;84.50
62916;DHT22;49010;51.230;-2.306;2022-08-20T07:24:58;17.40;83.80
62916;DHT22;49010;51.230;-2.306;2022-08-20T07:28:39;17.50;83.30
62916;DHT22;49010;51.230;-2.306;2022-08-20T07:32:21;17.60;82.90
62916;DHT22;49010;51.230;-2.306;2022-08-20T07:36:20;17.80;82.20
62916;DHT22;49010;51.230;-2.306;2022-08-20T07:40:02;17.90;81.80
62916;DHT22;49010;51.230;-2.306;2022-08-20T07:43:45;18.00;81.20
62916;DHT22;49010;51.230;-2.306;2022-08-20T07:47:27;18.10;81.20
62916;DHT22;49010;51.230;-2.306;2022-08-20T07:51:09;18.10;80.80
62916;DHT22;49010;51.230;-2.306;2022-08-20T07:54:54;18.20;80.60
62916;DHT22;49010;51.230;-2.306;2022-08-20T07:58:38;18.20;80.20
62916;DHT22;49010;51.230;-2.306;2022-08-20T08:02:22;18.30;80.00
62916;DHT22;49010;51.230;-2.306;2022-08-20T08:06:04;18.20;79.60
62916;DHT22;49010;51.230;-2.306;2022-08-20T08:09:48;18.30;79.80
62916;DHT22;49010;51.230;-2.306;2022-08-20T08:13:34;18.30;79.60
62916;DHT22;49010;51.230;-2.306;2022-08-20T08:17:18;18.30;79.60
62916;DHT22;49010;51.230;-2.306;2022-08-20T08:21:00;18.30;79.80
62916;DHT22;49010;51.230;-2.306;2022-08-20T08:24:43;18.30;80.40
62916;DHT22;49010;51.230;-2.306;2022-08-20T08:28:38;18.30;79.80
62916;DHT22;49010;51.230;-2.306;2022-08-20T08:32:20;18.50;79.30
62916;DHT22;49010;51.230;-2.306;2022-08-20T08:36:08;18.60;78.90
62916;DHT22;49010;51.230;-2.306;2022-08-20T08:39:50;18.70;78.40
62916;DHT22;49010;51.230;-2.306;2022-08-20T08:43:32;18.80;77.90
62916;DHT22;49010;51.230;-2.306;2022-08-20T08:47:22;18.90;77.40
62916;DHT22;49010;51.230;-2.306;2022-08-20T08:51:06;19.00;76.90
62916;DHT22;49010;51.230;-2.306;2022-08-20T08:54:55;19.10;76.20
62916;DHT22;49010;51.230;-2.306;2022-08-20T08:58:37;19.10;76.10
62916;DHT22;49010;51.230;-2.306;2022-08-20T09:02:21;19.10;74.80
62916;DHT22;49010;51.230;-2.306;2022-08-20T09:06:04;19.20;75.20
62916;DHT22;49010;51.230;-2.306;2022-08-20T09:09:46;19.20;75.50
62916;DHT22;49010;51.230;-2.306;2022-08-20T09:13:28;19.20;75.10
62916;DHT22;49010;51.230;-2.306;2022-08-20T09:17:10;19.20;74.70
62916;DHT22;49010;51.230;-2.306;2022-08-20T09:20:52;19.30;74.60
62916;DHT22;49010;51.230;-2.306;2022-08-20T09:24:34;19.40;74.70
62916;DHT22;49010;51.230;-2.306;2022-08-20T09:28:16;19.50;73.30
62916;DHT22;49010;51.230;-2.306;2022-08-20T09:32:17;19.70;71.50
62916;DHT22;49010;51.230;-2.306;2022-08-20T09:36:01;20.00;71.30
62916;DHT22;49010;51.230;-2.306;2022-08-20T09:39:43;20.40;70.10
62916;DHT22;49010;51.230;-2.306;2022-08-20T09:43:25;20.80;67.30
62916;DHT22;49010;51.230;-2.306;2022-08-20T09:47:07;21.20;66.70
62916;DHT22;49010;51.230;-2.306;2022-08-20T09:50:50;21.70;65.10
62916;DHT22;49010;51.230;-2.306;2022-08-20T09:54:33;21.90;63.00
62916;DHT22;49010;51.230;-2.306;2022-08-20T10:02:01;22.60;61.20
62916;DHT22;49010;51.230;-2.306;2022-08-20T10:05:43;22.90;60.20
62916;DHT22;49010;51.230;-2.306;2022-08-20T10:09:25;23.20;59.20
62916;DHT22;49010;51.230;-2.306;2022-08-20T10:13:07;23.40;58.30
62916;DHT22;49010;51.230;-2.306;2022-08-20T10:16:54;23.50;57.80
62916;DHT22;49010;51.230;-2.306;2022-08-20T10:20:41;23.60;61.30
62916;DHT22;49010;51.230;-2.306;2022-08-20T10:24:23;23.80;57.10
62916;DHT22;49010;51.230;-2.306;2022-08-20T10:28:04;24.00;56.40
62916;DHT22;49010;51.230;-2.306;2022-08-20T10:31:47;24.20;55.40
62916;DHT22;49010;51.230;-2.306;2022-08-20T10:35:29;24.50;55.20
62916;DHT22;49010;51.230;-2.306;2022-08-20T10:39:11;25.00;53.20
62916;DHT22;49010;51.230;-2.306;2022-08-20T10:42:53;25.20;52.90
62916;DHT22;49010;51.230;-2.306;2022-08-20T10:46:35;25.10;53.20
62916;DHT22;49010;51.230;-2.306;2022-08-20T10:50:17;24.90;54.00
62916;DHT22;49010;51.230;-2.306;2022-08-20T10:54:00;24.80;53.50
62916;DHT22;49010;51.230;-2.306;2022-08-20T10:57:46;24.90;52.90
62916;DHT22;49010;51.230;-2.306;2022-08-20T11:01:28;24.90;52.20
62916;DHT22;49010;51.230;-2.306;2022-08-20T11:05:17;24.90;52.40
62916;DHT22;49010;51.230;-2.306;2022-08-20T11:08:59;25.20;52.80
62916;DHT22;49010;51.230;-2.306;2022-08-20T11:12:40;26.00;53.20
62916;DHT22;49010;51.230;-2.306;2022-08-20T11:16:26;27.40;49.00
62916;DHT22;49010;51.230;-2.306;2022-08-20T11:20:10;28.80;45.90
62916;DHT22;49010;51.230;-2.306;2022-08-20T11:23:52;29.90;41.70
62916;DHT22;49010;51.230;-2.306;2022-08-20T11:27:37;30.00;41.40
62916;DHT22;49010;51.230;-2.306;2022-08-20T11:31:19;29.70;41.70
62916;DHT22;49010;51.230;-2.306;2022-08-20T11:35:01;29.90;41.80
62916;DHT22;49010;51.230;-2.306;2022-08-20T11:39:03;30.00;40.70
62916;DHT22;49010;51.230;-2.306;2022-08-20T11:42:45;29.60;41.70
62916;DHT22;49010;51.230;-2.306;2022-08-20T11:46:50;29.30;41.40
62916;DHT22;49010;51.230;-2.306;2022-08-20T11:50:32;29.00;42.10
62916;DHT22;49010;51.230;-2.306;2022-08-20T11:54:14;28.60;42.40
62916;DHT22;49010;51.230;-2.306;2022-08-20T11:57:56;28.10;43.50
62916;DHT22;49010;51.230;-2.306;2022-08-20T12:01:41;27.60;44.50
62916;DHT22;49010;51.230;-2.306;2022-08-20T12:05:45;27.40;45.20
62916;DHT22;49010;51.230;-2.306;2022-08-20T12:09:27;27.30;45.10
62916;DHT22;49010;51.230;-2.306;2022-08-20T12:13:09;27.20;45.50
62916;DHT22;49010;51.230;-2.306;2022-08-20T12:16:51;27.20;45.10
62916;DHT22;49010;51.230;-2.306;2022-08-20T12:20:34;27.40;45.40
62916;DHT22;49010;51.230;-2.306;2022-08-20T12:24:16;27.70;45.00
62916;DHT22;49010;51.230;-2.306;2022-08-20T12:27:58;28.60;43.90
62916;DHT22;49010;51.230;-2.306;2022-08-20T12:31:40;29.20;41.60
62916;DHT22;49010;51.230;-2.306;2022-08-20T12:35:22;29.80;42.30
62916;DHT22;49010;51.230;-2.306;2022-08-20T12:39:04;31.00;40.20
62916;DHT22;49010;51.230;-2.306;2022-08-20T12:42:48;32.20;39.40
62916;DHT22;49010;51.230;-2.306;2022-08-20T12:46:30;33.40;35.90
62916;DHT22;49010;51.230;-2.306;2022-08-20T12:50:15;34.30;36.20
62916;DHT22;49010;51.230;-2.306;2022-08-20T12:53:58;34.90;35.20
62916;DHT22;49010;51.230;-2.306;2022-08-20T12:57:43;35.50;33.70
62916;DHT22;49010;51.230;-2.306;2022-08-20T13:01:25;35.60;33.30
62916;DHT22;49010;51.230;-2.306;2022-08-20T13:05:08;35.70;33.80
62916;DHT22;49010;51.230;-2.306;2022-08-20T13:08:51;35.80;33.40
62916;DHT22;49010;51.230;-2.306;2022-08-20T13:12:32;36.30;32.60
62916;DHT22;49010;51.230;-2.306;2022-08-20T13:16:14;36.70;32.00
62916;DHT22;49010;51.230;-2.306;2022-08-20T13:19:57;36.50;31.40
62916;DHT22;49010;51.230;-2.306;2022-08-20T13:23:39;36.30;32.20
62916;DHT22;49010;51.230;-2.306;2022-08-20T13:27:21;36.40;32.50
62916;DHT22;49010;51.230;-2.306;2022-08-20T13:31:05;36.60;32.60
62916;DHT22;49010;51.230;-2.306;2022-08-20T13:34:47;36.90;30.70
62916;DHT22;49010;51.230;-2.306;2022-08-20T13:38:28;37.20;31.10
62916;DHT22;49010;51.230;-2.306;2022-08-20T13:42:12;37.50;30.40
62916;DHT22;49010;51.230;-2.306;2022-08-20T13:45:54;37.40;30.20
62916;DHT22;49010;51.230;-2.306;2022-08-20T13:49:36;36.60;31.50
62916;DHT22;49010;51.230;-2.306;2022-08-20T13:53:17;35.50;32.60
62916;DHT22;49010;51.230;-2.306;2022-08-20T13:57:05;34.40;34.90
62916;DHT22;49010;51.230;-2.306;2022-08-20T14:00:47;33.30;36.20
62916;DHT22;49010;51.230;-2.306;2022-08-20T14:04:29;32.80;36.30
62916;DHT22;49010;51.230;-2.306;2022-08-20T14:08:20;32.60;37.50
62916;DHT22;49010;51.230;-2.306;2022-08-20T14:12:02;33.40;36.70
62916;DHT22;49010;51.230;-2.306;2022-08-20T14:15:44;34.30;34.10
62916;DHT22;49010;51.230;-2.306;2022-08-20T14:19:26;34.50;33.50
62916;DHT22;49010;51.230;-2.306;2022-08-20T14:23:08;34.10;34.80
62916;DHT22;49010;51.230;-2.306;2022-08-20T14:26:50;34.20;34.00
62916;DHT22;49010;51.230;-2.306;2022-08-20T14:30:32;34.50;34.80
62916;DHT22;49010;51.230;-2.306;2022-08-20T14:34:14;34.10;33.80
62916;DHT22;49010;51.230;-2.306;2022-08-20T14:37:56;33.40;36.00
62916;DHT22;49010;51.230;-2.306;2022-08-20T14:41:38;33.10;35.60
62916;DHT22;49010;51.230;-2.306;2022-08-20T14:45:21;32.60;37.10
62916;DHT22;49010;51.230;-2.306;2022-08-20T14:49:02;31.80;38.00
62916;DHT22;49010;51.230;-2.306;2022-08-20T14:52:44;31.00;39.40
62916;DHT22;49010;51.230;-2.306;2022-08-20T14:56:26;30.50;40.60
62916;DHT22;49010;51.230;-2.306;2022-08-20T15:00:12;29.90;41.80
62916;DHT22;49010;51.230;-2.306;2022-08-20T15:03:54;29.50;42.50
62916;DHT22;49010;51.230;-2.306;2022-08-20T15:07:39;29.10;43.90
62916;DHT22;49010;51.230;-2.306;2022-08-20T15:11:21;28.90;45.50
62916;DHT22;49010;51.230;-2.306;2022-08-20T15:15:05;29.10;44.00
62916;DHT22;49010;51.230;-2.306;2022-08-20T15:18:56;29.10;44.30
62916;DHT22;49010;51.230;-2.306;2022-08-20T15:22:41;29.50;44.30
62916;DHT22;49010;51.230;-2.306;2022-08-20T15:26:23;29.80;43.90
62916;DHT22;49010;51.230;-2.306;2022-08-20T15:30:10;29.60;44.20
62916;DHT22;49010;51.230;-2.306;2022-08-20T15:33:52;29.50;43.90
62916;DHT22;49010;51.230;-2.306;2022-08-20T15:37:41;29.40;43.60
62916;DHT22;49010;51.230;-2.306;2022-08-20T15:41:24;29.30;43.90
62916;DHT22;49010;51.230;-2.306;2022-08-20T15:45:15;29.20;44.80
62916;DHT22;49010;51.230;-2.306;2022-08-20T15:49:02;28.90;45.00
62916;DHT22;49010;51.230;-2.306;2022-08-20T15:52:44;28.70;43.50
62916;DHT22;49010;51.230;-2.306;2022-08-20T16:00:55;28.60;44.20
62916;DHT22;49010;51.230;-2.306;2022-08-20T16:13:44;28.30;45.40
62916;DHT22;49010;51.230;-2.306;2022-08-20T16:17:50;28.10;45.80
62916;DHT22;49010;51.230;-2.306;2022-08-20T16:21:40;27.90;45.90
62916;DHT22;49010;51.230;-2.306;2022-08-20T16:25:30;27.80;46.00
62916;DHT22;49010;51.230;-2.306;2022-08-20T16:29:19;27.60;46.60
62916;DHT22;49010;51.230;-2.306;2022-08-20T16:33:44;27.50;47.50
62916;DHT22;49010;51.230;-2.306;2022-08-20T16:41:17;27.30;48.40
62916;DHT22;49010;51.230;-2.306;2022-08-20T16:45:04;27.20;47.40
62916;DHT22;49010;51.230;-2.306;2022-08-20T16:48:53;27.10;47.90
62916;DHT22;49010;51.230;-2.306;2022-08-20T16:52:41;26.90;48.20
62916;DHT22;49010;51.230;-2.306;2022-08-20T16:56:59;26.80;48.50
62916;DHT22;49010;51.230;-2.306;2022-08-20T17:00:41;26.70;47.70
62916;DHT22;49010;51.230;-2.306;2022-08-20T17:04:25;26.50;48.10
62916;DHT22;49010;51.230;-2.306;2022-08-20T17:08:24;26.50;48.70
62916;DHT22;49010;51.230;-2.306;2022-08-20T17:12:22;26.30;48.70
62916;DHT22;49010;51.230;-2.306;2022-08-20T17:20:00;26.00;49.50
62916;DHT22;49010;51.230;-2.306;2022-08-20T17:23:58;26.00;50.90
62916;DHT22;49010;51.230;-2.306;2022-08-20T17:27:41;25.90;51.30
62916;DHT22;49010;51.230;-2.306;2022-08-20T17:31:34;25.90;53.30
62916;DHT22;49010;51.230;-2.306;2022-08-20T17:35:28;25.80;53.80
62916;DHT22;49010;51.230;-2.306;2022-08-20T17:39:15;25.60;54.80
62916;DHT22;49010;51.230;-2.306;2022-08-20T17:43:02;25.50;54.80
62916;DHT22;49010;51.230;-2.306;2022-08-20T17:46:45;25.30;55.00
62916;DHT22;49010;51.230;-2.306;2022-08-20T17:50:32;25.20;55.60
62916;DHT22;49010;51.230;-2.306;2022-08-20T17:54:41;25.00;56.10
62916;DHT22;49010;51.230;-2.306;2022-08-20T17:58:41;24.90;54.90
62916;DHT22;49010;51.230;-2.306;2022-08-20T18:02:35;24.80;55.80
62916;DHT22;49010;51.230;-2.306;2022-08-20T18:10:10;24.80;54.90
62916;DHT22;49010;51.230;-2.306;2022-08-20T18:21:54;24.80;53.00
62916;DHT22;49010;51.230;-2.306;2022-08-20T18:25:52;24.70;52.70
62916;DHT22;49010;51.230;-2.306;2022-08-20T18:29:39;24.70;53.50
62916;DHT22;49010;51.230;-2.306;2022-08-20T18:33:32;24.60;54.00
62916;DHT22;49010;51.230;-2.306;2022-08-20T18:41:08;24.50;53.70
62916;DHT22;49010;51.230;-2.306;2022-08-20T18:44:52;24.40;54.40
62916;DHT22;49010;51.230;-2.306;2022-08-20T18:48:34;24.40;54.50
62916;DHT22;49010;51.230;-2.306;2022-08-20T18:52:26;24.40;54.10
62916;DHT22;49010;51.230;-2.306;2022-08-20T18:56:10;24.30;53.90
62916;DHT22;49010;51.230;-2.306;2022-08-20T19:00:13;24.20;54.50
62916;DHT22;49010;51.230;-2.306;2022-08-20T19:03:56;24.20;54.80
62916;DHT22;49010;51.230;-2.306;2022-08-20T19:07:42;24.00;57.70
62916;DHT22;49010;51.230;-2.306;2022-08-20T19:15:44;23.80;57.60
62916;DHT22;49010;51.230;-2.306;2022-08-20T19:19:27;23.70;59.80
62916;DHT22;49010;51.230;-2.306;2022-08-20T19:23:18;23.70;60.00
62916;DHT22;49010;51.230;-2.306;2022-08-20T19:27:04;23.60;60.40
62916;DHT22;49010;51.230;-2.306;2022-08-20T19:30:46;23.50;61.00
62916;DHT22;49010;51.230;-2.306;2022-08-20T19:34:28;23.40;61.70
62916;DHT22;49010;51.230;-2.306;2022-08-20T19:38:15;23.40;62.80
62916;DHT22;49010;51.230;-2.306;2022-08-20T19:42:03;23.40;62.80
62916;DHT22;49010;51.230;-2.306;2022-08-20T19:45:51;23.30;58.30
62916;DHT22;49010;51.230;-2.306;2022-08-20T19:53:41;23.10;63.50
62916;DHT22;49010;51.230;-2.306;2022-08-20T19:57:24;23.00;63.90
62916;DHT22;49010;51.230;-2.306;2022-08-20T20:01:16;23.00;64.40
62916;DHT22;49010;51.230;-2.306;2022-08-20T20:04:58;22.90;63.60
62916;DHT22;49010;51.230;-2.306;2022-08-20T20:08:44;22.90;64.60
62916;DHT22;49010;51.230;-2.306;2022-08-20T20:12:26;22.80;64.50
62916;DHT22;49010;51.230;-2.306;2022-08-20T20:16:08;22.70;60.30
62916;DHT22;49010;51.230;-2.306;2022-08-20T20:19:56;22.60;64.90
62916;DHT22;49010;51.230;-2.306;2022-08-20T20:23:40;22.60;64.80
62916;DHT22;49010;51.230;-2.306;2022-08-20T20:27:28;22.60;65.60
62916;DHT22;49010;51.230;-2.306;2022-08-20T20:31:16;22.50;65.50
62916;DHT22;49010;51.230;-2.306;2022-08-20T20:35:03;22.40;66.00
62916;DHT22;49010;51.230;-2.306;2022-08-20T20:38:59;22.40;66.20
62916;DHT22;49010;51.230;-2.306;2022-08-20T20:42:41;22.30;65.70
62916;DHT22;49010;51.230;-2.306;2022-08-20T20:46:24;22.30;66.70
62916;DHT22;49010;51.230;-2.306;2022-08-20T20:50:10;22.20;66.70
62916;DHT22;49010;51.230;-2.306;2022-08-20T20:53:53;22.20;66.90
62916;DHT22;49010;51.230;-2.306;2022-08-20T20:57:37;22.10;66.80
62916;DHT22;49010;51.230;-2.306;2022-08-20T21:01:19;22.00;67.00
62916;DHT22;49010;51.230;-2.306;2022-08-20T21:05:25;21.80;66.50
62916;DHT22;49010;51.230;-2.306;2022-08-20T21:09:07;21.80;66.80
62916;DHT22;49010;51.230;-2.306;2022-08-20T21:12:50;21.70;66.30
62916;DHT22;49010;51.230;-2.306;2022-08-20T21:16:34;21.50;66.40
62916;DHT22;49010;51.230;-2.306;2022-08-20T21:20:16;21.50;66.40
62916;DHT22;49010;51.230;-2.306;2022-08-20T21:23:59;21.30;66.30
62916;DHT22;49010;51.230;-2.306;2022-08-20T21:27:46;21.20;66.30
62916;DHT22;49010;51.230;-2.306;2022-08-20T21:31:37;21.10;66.10
62916;DHT22;49010;51.230;-2.306;2022-08-20T21:35:24;21.00;66.40
62916;DHT22;49010;51.230;-2.306;2022-08-20T21:39:07;20.90;66.70
62916;DHT22;49010;51.230;-2.306;2022-08-20T21:42:49;20.80;67.00
62916;DHT22;49010;51.230;-2.306;2022-08-20T21:46:32;20.60;67.10
62916;DHT22;49010;51.230;-2.306;2022-08-20T21:50:13;20.50;67.10
62916;DHT22;49010;51.230;-2.306;2022-08-20T21:53:59;20.50;67.40
62916;DHT22;49010;51.230;-2.306;2022-08-20T21:57:42;20.40;67.40
62916;DHT22;49010;51.230;-2.306;2022-08-20T22:01:24;20.30;67.60
62916;DHT22;49010;51.230;-2.306;2022-08-20T22:05:06;20.20;67.90
62916;DHT22;49010;51.230;-2.306;2022-08-20T22:08:49;20.10;67.90
62916;DHT22;49010;51.230;-2.306;2022-08-20T22:12:31;20.00;68.40
62916;DHT22;49010;51.230;-2.306;2022-08-20T22:16:17;19.90;68.40
62916;DHT22;49010;51.230;-2.306;2022-08-20T22:19:59;19.80;68.60
62916;DHT22;49010;51.230;-2.306;2022-08-20T22:23:41;19.80;68.80
62916;DHT22;49010;51.230;-2.306;2022-08-20T22:27:25;19.60;69.00
62916;DHT22;49010;51.230;-2.306;2022-08-20T22:31:07;19.60;69.20
62916;DHT22;49010;51.230;-2.306;2022-08-20T22:34:51;19.50;69.50
62916;DHT22;49010;51.230;-2.306;2022-08-20T22:38:33;19.40;69.60
62916;DHT22;49010;51.230;-2.306;2022-08-20T22:42:15;19.30;70.00
62916;DHT22;49010;51.230;-2.306;2022-08-20T22:46:00;19.20;70.20
62916;DHT22;49010;51.230;-2.306;2022-08-20T22:49:42;19.20;70.40
62916;DHT22;49010;51.230;-2.306;2022-08-20T22:53:26;19.10;70.70
62916;DHT22;49010;51.230;-2.306;2022-08-20T22:57:08;19.10;70.80
62916;DHT22;49010;51.230;-2.306;2022-08-20T23:00:52;19.00;70.90
62916;DHT22;49010;51.230;-2.306;2022-08-20T23:04:36;18.90;71.70
62916;DHT22;49010;51.230;-2.306;2022-08-20T23:08:18;18.90;71.30
62916;DHT22;49010;51.230;-2.306;2022-08-20T23:12:00;18.80;71.40
62916;DHT22;49010;51.230;-2.306;2022-08-20T23:15:42;18.80;71.60
62916;DHT22;49010;51.230;-2.306;2022-08-20T23:19:26;18.80;71.70
62916;DHT22;49010;51.230;-2.306;2022-08-20T23:23:08;18.70;71.90
62916;DHT22;49010;51.230;-2.306;2022-08-20T23:26:51;18.60;71.80
62916;DHT22;49010;51.230;-2.306;2022-08-20T23:30:34;18.50;72.20
62916;DHT22;49010;51.230;-2.306;2022-08-20T23:34:17;18.50;72.50
62916;DHT22;49010;51.230;-2.306;2022-08-20T23:37:59;18.40;72.90
62916;DHT22;49010;51.230;-2.306;2022-08-20T23:41:41;18.30;73.20
62916;DHT22;49010;51.230;-2.306;2022-08-20T23:45:28;18.10;73.30
62916;DHT22;49010;51.230;-2.306;2022-08-20T23:49:11;18.00;73.50
62916;DHT22;49010;51.230;-2.306;2022-08-20T23:52:54;18.00;73.90
62916;DHT22;49010;51.230;-2.306;2022-08-20T23:56:37;17.90;74.30
